Flight Track Log - Related Links

Times and Time Zones

All times are in EDT time to prevent confusion due to time zone crossing. See the N724AE flight status page for this flight to view local times or setup timezone preferences in your user account.

Time Position Orientation Groundspeed Altitude Reporting Facility
EDT Latitude Longitude Course Direction KTS MPH feet Rate Location/Type
Thu 02:37:18 PM 41.8233 -91.7850 197° South 249 287 4,000  Level Chicago Center
Thu 02:38:00 PM 41.5836 -91.8166 194° South  Level FlightAware Approximate
Thu 02:38:20 PM 41.7536 -91.8081 194° South 252 290 6,800  Level Chicago Center
Thu 02:39:00 PM 41.4832 -91.8550 193° South  Level FlightAware Approximate
Thu 02:39:22 PM 41.6803 -91.8414 199° South 276 318 9,100  Level Chicago Center
Thu 02:40:00 PM 41.3812 -91.8857 193° South  Level FlightAware Approximate
Thu 02:40:24 PM 41.5992 -91.8733 196° South 301 346 10,500  Level Chicago Center
Thu 02:41:00 PM 41.2803 -91.9218 197° South  Level FlightAware Approximate
Thu 02:41:26 PM 41.4831 -91.9164 196° South 364 419 11,700  Level Chicago Center
Thu 02:42:00 PM 41.1794 -91.9632 197° South  Level FlightAware Approximate
Thu 02:42:28 PM 41.3819 -91.9528 195° South 377 434 13,100  Level Chicago Center
Thu 02:43:30 PM 41.2783 -91.9886 195° South 383 441 14,600 1,548 Climbing Chicago Center
Thu 02:44:32 PM 41.1594 -92.0331 196° South 390 449 16,300 1,500 Climbing Chicago Center
Thu 02:45:34 PM 41.0564 -92.0683 194° South 387 445 17,700 1,296 Climbing Chicago Center
Thu 02:46:37 PM 40.9539 -92.1075 196° South 387 445 19,000 1,344 Climbing Chicago Center
Thu 02:47:39 PM 40.8511 -92.1442 195° South 386 444 20,500 1,403 Climbing Chicago Center
Thu 02:48:41 PM 40.7453 -92.1814 195° South 393 452 21,900 1,258 Climbing Chicago Center
Thu 02:49:43 PM 40.6389 -92.2197 195° South 398 458 23,100 1,163 Climbing Chicago Center
Thu 02:50:19 PM 40.5739 -92.2425 195° South 399 459 23,800 1,361 Climbing Kansas City Center
Thu 02:51:20 PM 40.4408 -92.2892 195° South 408 470 25,300 1,238 Climbing Kansas City Center
Thu 02:52:25 PM 40.3300 -92.3286 195° South 410 472 26,400 1,104 Climbing Kansas City Center
Thu 02:53:25 PM 40.2114 -92.3706 195° South 408 470 27,600 1,065 Climbing Kansas City Center
Thu 02:54:29 PM 40.1053 -92.4083 195° South 411 473 28,600 968 Climbing Kansas City Center
Thu 02:55:29 PM 39.9969 -92.4464 195° South 410 472 29,600 677 Climbing Kansas City Center
Thu 02:56:33 PM 39.8828 -92.4856 195° South 419 482 30,000 194 Climbing Kansas City Center
Thu 02:57:33 PM 39.7622 -92.5275 195° South 442 509 30,000  Level Kansas City Center
Thu 02:58:34 PM 39.6181 -92.5781 195° South 448 516 30,000  Level Kansas City Center
Thu 02:59:39 PM 39.4978 -92.6186 195° South 449 517 30,000  Level Kansas City Center
Thu 03:00:40 PM 39.3778 -92.6619 196° South 448 516 30,000  Level Kansas City Center
Thu 03:01:41 PM 39.2400 -92.7092 195° South 449 517 30,000  Level Kansas City Center
Thu 03:02:44 PM 39.1372 -92.7436 195° South 450 518 30,000  Level Kansas City Center
Thu 03:03:44 PM 38.9928 -92.7939 195° South 449 517 30,000  Level Kansas City Center
Thu 03:04:48 PM 38.8758 -92.8325 194° South 449 517 30,000  Level Kansas City Center
Thu 03:05:51 PM 38.7553 -92.8742 195° South 448 516 30,000  Level Kansas City Center
Thu 03:06:52 PM 38.6356 -92.9131 194° South 444 511 30,000  Level Kansas City Center
Thu 03:07:53 PM 38.4942 -92.9600 195° South 440 506 30,000  Level Kansas City Center
Thu 03:08:56 PM 38.3775 -92.9994 195° South 437 503 30,000  Level Kansas City Center
Thu 03:09:58 PM 38.2606 -93.0381 195° South 435 501 30,000  Level Kansas City Center
Thu 03:11:01 PM 38.1417 -93.0786 195° South 439 505 30,000  Level Kansas City Center
Thu 03:12:02 PM 38.0253 -93.1156 194° South 436 502 30,000  Level Kansas City Center
Thu 03:13:05 PM 37.9075 -93.1547 195° South 437 503 30,000  Level Kansas City Center
Thu 03:14:06 PM 37.7658 -93.2014 195° South 437 503 30,000  Level Kansas City Center
Thu 03:15:10 PM 37.6475 -93.2400 194° South 438 504 30,000  Level Kansas City Center
Thu 03:16:10 PM 37.5292 -93.2786 195° South 439 505 30,000  Level Kansas City Center
Thu 03:17:14 PM 37.4103 -93.3169 194° South 439 505 30,000  Level Kansas City Center
Thu 03:18:14 PM 37.2992 -93.3739 202° Southwest 436 502 30,000  Level Kansas City Center
Thu 03:19:18 PM 37.1936 -93.4508 210° Southwest 437 503 30,000  Level Kansas City Center
Thu 03:20:19 PM 37.0664 -93.5417 210° Southwest 437 503 30,000  Level Kansas City Center
Thu 03:21:19 PM 36.9619 -93.6183 210° Southwest 436 502 30,000  Level Kansas City Center
Thu 03:22:23 PM 36.8567 -93.6900 209° Southwest 439 505 30,000  Level Kansas City Center
Thu 03:23:24 PM 36.7508 -93.7653 210° Southwest 440 506 30,000  Level Kansas City Center
Thu 03:24:26 PM 36.6369 -93.8450 209° Southwest 439 505 30,000  Level Kansas City Center
Thu 03:24:44 PM 36.5928 -93.8692 204° Southwest 440 506 30,000  Level Memphis Center
Thu 03:25:29 PM 36.5233 -93.9053 203° Southwest 442 509 30,000  Level Kansas City Center
Thu 03:26:29 PM 36.4089 -93.9650 203° Southwest 444 511 30,000  Level Kansas City Center
Thu 03:26:44 PM 36.3642 -93.9908 205° Southwest 445 512 30,000  Level Memphis Center
Thu 03:27:45 PM 36.2628 -94.0428 202° Southwest 445 512 30,000  Level Memphis Center
Thu 03:28:44 PM 36.1483 -94.0994 202° Southwest 445 512 30,000  Level Memphis Center
Thu 03:29:44 PM 36.0317 -94.1633 204° Southwest 445 512 30,000  Level Memphis Center
Thu 03:30:44 PM 35.9175 -94.2222 203° Southwest 445 512 30,000  Level Memphis Center
Thu 03:31:44 PM 35.8028 -94.2833 203° Southwest 451 519 30,000  Level Memphis Center
Thu 03:32:44 PM 35.6864 -94.3417 202° Southwest 451 519 30,000  Level Memphis Center
Thu 03:33:44 PM 35.5697 -94.4000 202° Southwest 451 519 30,000  Level Memphis Center
Thu 03:34:44 PM 35.4550 -94.4606 203° Southwest 451 519 30,000  Level Memphis Center
Thu 03:35:44 PM 35.3344 -94.5158 201° Southwest 457 526 30,000  Level Memphis Center
Thu 03:36:44 PM 35.2197 -94.5761 203° Southwest 457 526 30,000  Level Memphis Center
Thu 03:37:44 PM 35.1011 -94.6336 202° Southwest 462 532 30,000  Level Memphis Center
Thu 03:38:40 PM 34.9872 -94.7094 209° Southwest 469 540 30,000  Level Fort Worth Center
Thu 03:39:39 PM 34.8914 -94.8164 222° Southwest 458 527 30,000  Level Fort Worth Center
Thu 03:40:39 PM 34.7975 -94.9153 221° Southwest 458 527 30,000  Level Fort Worth Center
Thu 03:41:40 PM 34.7014 -95.0142 220° Southwest 458 527 30,000  Level Fort Worth Center
Thu 03:42:39 PM 34.6031 -95.1203 222° Southwest 463 533 30,000  Level Fort Worth Center
Thu 03:43:39 PM 34.5050 -95.2261 222° Southwest 469 540 30,000 -700 Level Fort Worth Center
Thu 03:44:39 PM 34.4044 -95.3319 221° Southwest 479 551 28,600 -1,450 Descending Fort Worth Center
Thu 03:45:39 PM 34.3058 -95.4347 221° Southwest 479 551 27,100 -1,400 Descending Fort Worth Center
Thu 03:46:39 PM 34.2053 -95.5403 221° Southwest 479 551 25,800 -1,350 Descending Fort Worth Center
Thu 03:47:39 PM 34.1025 -95.6478 221° Southwest 479 551 24,400 -900 Descending Fort Worth Center
Thu 03:48:39 PM 34.0203 -95.7397 223° Southwest 467 537 24,000 -200 Descending Fort Worth Center
Thu 03:49:39 PM 33.9194 -95.8417 220° Southwest 472 543 24,000  Level Fort Worth Center
Thu 03:50:39 PM 33.8206 -95.9458 221° Southwest 478 550 24,000  Level Fort Worth Center
Thu 03:51:39 PM 33.7194 -96.0475 220° Southwest 478 550 24,000 -1,100 Level Fort Worth Center
Thu 03:52:39 PM 33.6161 -96.1539 221° Southwest 465 535 21,800 -2,529 Descending Fort Worth Center
Thu 03:53:40 PM 33.5333 -96.2397 221° Southwest 443 510 18,900 -2,700 Descending Fort Worth Center
Thu 03:54:39 PM 33.4447 -96.3456 225° Southwest 421 484 16,400 -2,168 Descending Fort Worth Center
Thu 03:55:39 PM 33.3786 -96.4258 225° Southwest 396 456 14,600 -1,934 Descending Fort Worth Center
Thu 03:56:40 PM 33.3019 -96.5161 225° Southwest 361 415 12,500 -1,800 Descending Fort Worth Center
Thu 03:57:39 PM 33.2378 -96.5939 225° Southwest 339 390 11,000 -756 Descending Fort Worth Center
Thu 03:58:39 PM 33.1819 -96.6614 225° Southwest 322 371 11,000  Level Fort Worth Center
Thu 03:59:40 PM 33.1156 -96.7414 225° Southwest 317 365 11,000  Level Fort Worth Center
Thu 04:00:23 PM 33.0667 -96.7833 216° Southwest 297 342 11,000  Level Dallas / Fort Worth TRACON
Thu 04:01:23 PM 33.0167 -96.8500 228° Southwest 266 306 11,000 -50 Level Dallas / Fort Worth TRACON
Thu 04:02:24 PM 32.9500 -96.9000 212° Southwest 271 312 10,900 -744 Descending Dallas / Fort Worth TRACON
Thu 04:03:24 PM 32.8833 -96.9000 180° South 287 330 9,500 -1,450 Descending Dallas / Fort Worth TRACON
Thu 04:04:24 PM 32.8000 -96.9000 180° South 274 315 8,000 -1,500 Descending Dallas / Fort Worth TRACON
Thu 04:05:24 PM 32.7333 -96.9000 180° South 262 302 6,500 -992 Descending Dallas / Fort Worth TRACON
Thu 04:06:25 PM 32.6667 -96.9167 192° South 248 285 6,000 -298 Descending Dallas / Fort Worth TRACON
Thu 04:07:25 PM 32.6000 -96.9500 203° Southwest 245 282 5,900 -500 Descending Dallas / Fort Worth TRACON
Thu 04:08:25 PM 32.6000 -97.0167 270° West 220 253 5,000 -720 Descending Dallas / Fort Worth TRACON
Thu 04:08:40 PM 32.6072 -97.0336 297° West 180 207 5,000 -400 Level Fort Worth Center
Thu 04:09:25 PM 32.6500 -97.0500 342° North 199 229 4,600 -849 Descending Dallas / Fort Worth TRACON
Thu 04:10:26 PM 32.7000 -97.0500 360° North 215 247 3,500 -1,082 Descending Dallas / Fort Worth TRACON

Login

Don't have an account? Register now (free) for customized features, flight alerts, and more!